createdAt,value
2023-05-09T00:00:39.615Z,21.40
2023-05-09T00:03:07.925Z,21.48
2023-05-09T00:05:36.292Z,21.10
2023-05-09T00:08:04.688Z,21.65
2023-05-09T00:10:34.365Z,20.70
2023-05-09T00:13:02.722Z,21.45
2023-05-09T00:15:31.904Z,23.42
2023-05-09T00:18:00.237Z,22.08
2023-05-09T00:20:28.870Z,20.77
2023-05-09T00:22:57.113Z,21.98
2023-05-09T00:25:25.571Z,23.15
2023-05-09T00:27:55.289Z,21.13
2023-05-09T00:30:23.747Z,23.30
2023-05-09T00:32:52.114Z,22.02
2023-05-09T00:35:20.429Z,22.23
2023-05-09T00:37:49.307Z,23.33
2023-05-09T00:40:17.882Z,26.48
2023-05-09T00:42:46.483Z,27.75
2023-05-09T00:45:16.201Z,25.00
2023-05-09T00:47:44.742Z,24.05
2023-05-09T00:50:13.648Z,26.17
2023-05-09T00:52:41.971Z,23.48
2023-05-09T00:55:10.633Z,25.58
2023-05-09T00:57:38.966Z,28.63
2023-05-09T01:00:12.798Z,24.48
2023-05-09T01:02:43.022Z,28.52
2023-05-09T01:05:11.578Z,24.08
2023-05-09T01:07:43.054Z,26.73
2023-05-09T01:10:16.843Z,25.65
2023-05-09T01:12:49.353Z,25.90
2023-05-09T01:15:21.489Z,26.05
2023-05-09T01:17:55.414Z,27.58
2023-05-09T01:20:28.590Z,25.30
2023-05-09T01:23:02.363Z,26.08
2023-05-09T01:25:46.224Z,25.52
2023-05-09T01:28:16.088Z,26.38
2023-05-09T01:30:46.947Z,25.85
2023-05-09T01:33:18.232Z,25.23
2023-05-09T01:35:50.471Z,26.40
2023-05-09T01:38:20.394Z,29.27
2023-05-09T01:40:50.783Z,26.15
2023-05-09T01:43:21.098Z,25.75
2023-05-09T01:45:51.581Z,24.85
2023-05-09T01:48:20.920Z,23.50
2023-05-09T01:50:49.462Z,22.70
2023-05-09T01:53:18.948Z,27.70
2023-05-09T01:55:47.845Z,25.95
2023-05-09T01:58:16.557Z,23.88
2023-05-09T02:00:46.964Z,25.02
2023-05-09T02:03:16.773Z,23.48
2023-05-09T02:05:46.082Z,23.75
2023-05-09T02:08:15.659Z,24.85
2023-05-09T02:10:44.256Z,23.77
2023-05-09T02:13:12.617Z,23.73
2023-05-09T02:15:41.462Z,22.90
2023-05-09T02:18:09.780Z,25.30
2023-05-09T02:20:39.504Z,26.30
2023-05-09T02:23:07.922Z,24.15
2023-05-09T02:25:36.319Z,23.95
2023-05-09T02:28:04.781Z,23.80
2023-05-09T02:30:35.227Z,25.05
2023-05-09T02:33:05.101Z,20.73
2023-05-09T02:35:33.637Z,23.05
2023-05-09T02:38:03.699Z,23.20
2023-05-09T02:40:35.340Z,23.10
2023-05-09T02:43:04.057Z,22.20
2023-05-09T02:45:32.984Z,24.52
2023-05-09T02:48:01.542Z,24.58
2023-05-09T02:50:29.929Z,24.60
2023-05-09T02:52:58.578Z,25.52
2023-05-09T02:55:28.368Z,24.30
2023-05-09T02:58:09.336Z,26.17
2023-05-09T03:00:41.521Z,23.95
2023-05-09T03:03:10.698Z,24.20
2023-05-09T03:05:39.208Z,22.08
2023-05-09T03:08:07.540Z,24.40
2023-05-09T03:10:37.750Z,24.92
2023-05-09T03:13:06.142Z,25.30
2023-05-09T03:15:34.524Z,25.73
2023-05-09T03:18:03.235Z,24.58
2023-05-09T03:20:31.534Z,25.88
2023-05-09T03:23:00.611Z,24.23
2023-05-09T03:25:28.991Z,22.70
2023-05-09T03:27:58.613Z,23.35
2023-05-09T03:30:27.403Z,25.15
2023-05-09T03:32:57.158Z,24.85
2023-05-09T03:35:25.700Z,24.13
2023-05-09T03:37:55.406Z,26.83
2023-05-09T03:40:23.769Z,29.85
2023-05-09T03:43:01.891Z,25.45
2023-05-09T03:45:30.390Z,28.08
2023-05-09T03:47:59.187Z,24.05
2023-05-09T03:50:27.662Z,27.80
2023-05-09T03:52:58.753Z,25.27
2023-05-09T03:55:27.535Z,30.77
2023-05-09T03:57:55.884Z,25.17
2023-05-09T04:00:27.271Z,26.98
2023-05-09T04:03:05.021Z,25.83
2023-05-09T04:05:38.954Z,26.40
2023-05-09T04:08:09.693Z,28.63
2023-05-09T04:10:38.052Z,25.05
2023-05-09T04:13:06.589Z,31.33
2023-05-09T04:15:37.371Z,26.92
2023-05-09T04:18:06.088Z,25.88
2023-05-09T04:20:34.499Z,24.38
2023-05-09T04:23:03.305Z,25.83
2023-05-09T04:25:31.827Z,26.40
2023-05-09T04:28:00.242Z,31.70
2023-05-09T04:30:29.648Z,25.83
2023-05-09T04:33:00.329Z,25.23
2023-05-09T04:35:30.359Z,25.88
2023-05-09T04:37:58.958Z,24.42
2023-05-09T04:40:28.390Z,24.77
2023-05-09T04:43:00.285Z,26.35
2023-05-09T04:45:31.816Z,22.20
2023-05-09T04:48:04.048Z,26.13
2023-05-09T04:50:32.745Z,23.92
2023-05-09T04:53:01.218Z,23.10
2023-05-09T04:55:29.687Z,25.08
2023-05-09T04:57:58.375Z,22.98
2023-05-09T05:00:26.915Z,23.23
2023-05-09T05:02:55.438Z,25.83
2023-05-09T05:05:27.912Z,23.30
2023-05-09T05:07:56.562Z,23.92
2023-05-09T05:10:30.424Z,25.95
2023-05-09T05:13:07.308Z,23.00
2023-05-09T05:15:37.725Z,21.00
2023-05-09T05:18:06.761Z,20.58
2023-05-09T05:20:37.940Z,25.40
2023-05-09T05:23:06.258Z,25.27
2023-05-09T05:25:34.556Z,22.73
2023-05-09T05:28:03.658Z,23.05
2023-05-09T05:30:34.164Z,22.45
2023-05-09T05:33:03.653Z,22.27
2023-05-09T05:35:32.519Z,22.90
2023-05-09T05:38:02.649Z,23.50
2023-05-09T05:40:31.052Z,23.60
2023-05-09T05:43:02.691Z,21.55
2023-05-09T05:45:33.061Z,23.38
2023-05-09T05:48:04.115Z,22.95
2023-05-09T05:50:34.409Z,20.35
2023-05-09T05:53:04.365Z,18.90
2023-05-09T05:55:32.719Z,20.15
2023-05-09T05:58:01.690Z,22.73
2023-05-09T06:00:30.126Z,22.15
2023-05-09T06:03:04.341Z,21.42
2023-05-09T06:05:52.844Z,21.58
2023-05-09T06:08:22.525Z,21.73
2023-05-09T06:10:50.831Z,19.77
2023-05-09T06:13:19.149Z,21.75
2023-05-09T06:15:52.581Z,20.02
2023-05-09T06:18:20.943Z,19.80
2023-05-09T06:20:49.306Z,19.02
2023-05-09T06:23:21.976Z,23.58
2023-05-09T06:25:51.705Z,20.25
2023-05-09T06:28:20.017Z,17.98
2023-05-09T06:30:48.288Z,19.73
2023-05-09T06:33:16.561Z,19.27
2023-05-09T06:35:45.044Z,18.02
2023-05-09T06:38:13.320Z,19.50
2023-05-09T06:40:41.820Z,18.30
2023-05-09T06:43:11.544Z,18.70
2023-05-09T06:45:39.831Z,18.25
2023-05-09T06:48:08.560Z,18.80
2023-05-09T06:50:36.906Z,18.08
2023-05-09T06:53:05.318Z,20.38
2023-05-09T06:55:33.701Z,18.23
2023-05-09T06:58:02.030Z,16.38
2023-05-09T07:00:31.815Z,19.92
2023-05-09T07:03:00.220Z,19.08
2023-05-09T07:05:28.644Z,18.35
2023-05-09T07:07:56.972Z,21.25
2023-05-09T07:10:25.358Z,16.65
2023-05-09T07:12:53.642Z,13.60
2023-05-09T07:15:36.685Z,15.65
2023-05-09T07:18:10.080Z,16.48
2023-05-09T07:20:38.585Z,15.98
2023-05-09T07:23:07.074Z,18.70
2023-05-09T07:25:35.510Z,16.67
2023-05-09T07:28:03.845Z,16.92
2023-05-09T07:30:32.243Z,15.05
2023-05-09T07:33:01.460Z,15.20
2023-05-09T07:35:31.217Z,13.10
2023-05-09T07:37:59.553Z,12.90
2023-05-09T07:40:27.828Z,13.32
2023-05-09T07:42:56.712Z,16.90
2023-05-09T07:45:25.044Z,16.45
2023-05-09T07:47:53.409Z,17.02
2023-05-09T07:50:23.090Z,14.55
2023-05-09T07:52:52.943Z,15.55
2023-05-09T07:55:21.343Z,12.93
2023-05-09T07:57:49.677Z,15.50
2023-05-09T08:00:23.260Z,12.50
2023-05-09T08:02:52.137Z,15.27
2023-05-09T08:05:20.815Z,16.02
2023-05-09T08:07:49.193Z,17.70
2023-05-09T08:10:18.801Z,20.52
2023-05-09T08:12:47.086Z,16.58
2023-05-09T08:15:15.699Z,16.75
2023-05-09T08:17:44.332Z,15.85
2023-05-09T08:20:13.716Z,16.15
2023-05-09T08:22:42.054Z,18.50
2023-05-09T08:25:10.465Z,17.80
2023-05-09T08:27:40.154Z,19.38
2023-05-09T08:30:09.096Z,17.90
2023-05-09T08:32:37.548Z,15.95
2023-05-09T08:35:06.070Z,21.35
2023-05-09T08:37:34.344Z,19.33
2023-05-09T08:40:04.132Z,17.63
2023-05-09T08:42:33.567Z,16.13
2023-05-09T08:45:04.062Z,15.52
2023-05-09T08:47:36.129Z,19.48
2023-05-09T08:50:04.553Z,20.67
2023-05-09T08:52:33.733Z,23.15
2023-05-09T08:55:02.296Z,18.95
2023-05-09T08:57:30.774Z,16.08
2023-05-09T08:59:59.520Z,15.40
2023-05-09T09:02:29.266Z,17.00
2023-05-09T09:05:04.158Z,15.98
2023-05-09T09:07:35.899Z,18.00
2023-05-09T09:10:07.072Z,15.80
2023-05-09T09:12:37.091Z,14.50
2023-05-09T09:15:06.502Z,14.05
2023-05-09T09:17:36.919Z,17.73
2023-05-09T09:20:08.885Z,15.45
2023-05-09T09:22:38.426Z,14.45
2023-05-09T09:25:06.978Z,16.95
2023-05-09T09:27:35.487Z,17.17
2023-05-09T09:30:22.416Z,14.93
2023-05-09T09:32:52.205Z,14.70
2023-05-09T09:35:21.712Z,16.17
2023-05-09T09:37:49.952Z,18.50
2023-05-09T09:40:18.327Z,14.85
2023-05-09T09:42:47.000Z,14.75
2023-05-09T09:45:16.047Z,18.98
2023-05-09T09:47:44.831Z,16.92
2023-05-09T09:50:15.961Z,15.88
2023-05-09T09:52:45.232Z,18.75
2023-05-09T09:55:14.415Z,16.20
2023-05-09T09:57:45.523Z,15.23
2023-05-09T10:00:14.735Z,15.65
2023-05-09T10:02:50.485Z,16.15
2023-05-09T10:05:28.561Z,15.93
2023-05-09T10:07:58.899Z,14.70
2023-05-09T10:10:28.246Z,17.33
2023-05-09T10:12:58.709Z,15.88
2023-05-09T10:15:28.730Z,15.77
2023-05-09T10:17:59.390Z,16.63
2023-05-09T10:20:29.691Z,16.20
2023-05-09T10:23:03.492Z,17.98
2023-05-09T10:25:34.970Z,14.32
2023-05-09T10:28:05.346Z,15.50
2023-05-09T10:30:37.102Z,16.52
2023-05-09T10:33:06.313Z,12.88
2023-05-09T10:35:38.269Z,13.55
2023-05-09T10:38:09.864Z,12.80
2023-05-09T10:40:38.253Z,14.07
2023-05-09T10:43:07.101Z,14.88
2023-05-09T10:45:35.893Z,13.25
2023-05-09T10:48:04.967Z,13.82
2023-05-09T10:50:33.343Z,15.80
2023-05-09T10:53:14.118Z,17.38
2023-05-09T10:55:50.775Z,14.05
2023-05-09T10:58:23.553Z,13.88
2023-05-09T11:00:55.161Z,14.85
2023-05-09T11:03:28.708Z,16.77
2023-05-09T11:05:58.971Z,18.08
2023-05-09T11:08:29.014Z,15.30
2023-05-09T11:10:58.098Z,15.07
2023-05-09T11:13:27.327Z,19.63
2023-05-09T11:16:06.149Z,16.23
2023-05-09T11:18:34.654Z,18.48
2023-05-09T11:21:09.466Z,18.40
2023-05-09T11:23:39.372Z,17.17
2023-05-09T11:26:08.381Z,17.02
2023-05-09T11:28:37.925Z,14.90
2023-05-09T11:31:12.850Z,16.77
2023-05-09T11:33:42.385Z,19.60
2023-05-09T11:36:18.350Z,14.20
2023-05-09T11:38:48.637Z,17.05
2023-05-09T11:41:17.276Z,19.38
2023-05-09T11:43:45.673Z,18.60
2023-05-09T11:46:14.070Z,16.02
2023-05-09T11:48:42.839Z,14.48
2023-05-09T11:51:18.019Z,14.95
2023-05-09T11:53:47.948Z,18.20
2023-05-09T11:56:16.338Z,16.58
2023-05-09T11:58:44.760Z,15.77
2023-05-09T12:01:13.596Z,19.73
2023-05-09T12:03:44.238Z,15.70
2023-05-09T12:06:15.663Z,16.45
2023-05-09T12:08:43.932Z,13.68
2023-05-09T12:11:18.391Z,13.52
2023-05-09T12:13:52.673Z,12.55
2023-05-09T12:16:23.458Z,13.80
2023-05-09T12:18:55.258Z,13.63
2023-05-09T12:21:23.833Z,12.63
2023-05-09T12:23:53.339Z,11.20
2023-05-09T12:26:24.444Z,13.25
2023-05-09T12:28:53.559Z,10.77
2023-05-09T12:31:22.184Z,12.20
2023-05-09T12:33:50.620Z,11.05
2023-05-09T12:36:18.974Z,11.73
2023-05-09T12:38:55.171Z,10.15
2023-05-09T12:43:56.380Z,11.63
2023-05-09T12:46:24.989Z,11.07
2023-05-09T12:48:53.434Z,8.60
2023-05-09T12:51:22.179Z,11.70
2023-05-09T12:53:50.710Z,10.63
2023-05-09T12:56:20.034Z,9.30
2023-05-09T12:58:53.149Z,10.55
2023-05-09T13:01:30.522Z,9.93
2023-05-09T13:04:04.732Z,9.45
2023-05-09T13:06:34.758Z,8.43
2023-05-09T13:09:07.969Z,8.98
2023-05-09T13:11:38.095Z,11.88
2023-05-09T13:14:08.095Z,13.65
2023-05-09T13:16:36.611Z,12.00
2023-05-09T13:19:06.855Z,14.88
2023-05-09T13:21:35.947Z,13.93
2023-05-09T13:24:04.270Z,19.67
2023-05-09T13:26:32.851Z,16.65
2023-05-09T13:29:01.174Z,17.83
2023-05-09T13:31:31.011Z,18.25
2023-05-09T13:33:59.483Z,14.25
2023-05-09T13:36:27.789Z,15.48
2023-05-09T13:38:56.194Z,15.82
2023-05-09T13:41:24.520Z,14.07
2023-05-09T13:43:52.935Z,16.75
2023-05-09T13:46:21.275Z,15.13
2023-05-09T13:48:50.950Z,13.75
2023-05-09T13:51:19.335Z,13.38
2023-05-09T13:53:47.831Z,13.32
2023-05-09T13:56:16.112Z,15.70
2023-05-09T13:58:44.421Z,15.65
2023-05-09T14:01:17.643Z,12.98
2023-05-09T14:03:49.053Z,12.73
2023-05-09T14:06:20.309Z,15.07
2023-05-09T14:08:52.038Z,13.68
2023-05-09T14:11:22.009Z,15.10
2023-05-09T14:13:50.371Z,16.50
2023-05-09T14:16:18.646Z,16.05
2023-05-09T14:18:47.024Z,17.55
2023-05-09T14:21:15.388Z,15.20
2023-05-09T14:23:44.954Z,13.98
2023-05-09T14:26:13.614Z,15.13
2023-05-09T14:28:41.906Z,15.20
2023-05-09T14:31:10.247Z,16.38
2023-05-09T14:33:39.744Z,15.43
2023-05-09T14:36:08.080Z,17.60
2023-05-09T14:38:36.849Z,18.10
2023-05-09T14:41:07.229Z,17.80
2023-05-09T14:43:35.662Z,16.15
2023-05-09T14:46:03.943Z,14.30
2023-05-09T14:48:32.235Z,13.32
2023-05-09T14:51:00.577Z,17.55
2023-05-09T14:53:29.297Z,14.73
2023-05-09T14:55:57.649Z,17.85
2023-05-09T14:58:27.374Z,14.20
2023-05-09T15:00:59.344Z,15.50
2023-05-09T15:03:33.366Z,15.52
2023-05-09T15:06:09.669Z,12.60
2023-05-09T15:08:41.182Z,13.18
2023-05-09T15:11:09.598Z,11.85
2023-05-09T15:13:39.257Z,15.77
2023-05-09T15:16:08.689Z,18.23
2023-05-09T15:18:37.092Z,15.60
2023-05-09T15:21:05.663Z,15.88
2023-05-09T15:23:34.034Z,16.67
2023-05-09T15:26:02.368Z,15.77
2023-05-09T15:28:30.708Z,14.85
2023-05-09T15:31:00.774Z,16.45
2023-05-09T15:33:29.315Z,15.82
2023-05-09T15:35:58.883Z,17.98
2023-05-09T15:38:27.273Z,17.75
2023-05-09T15:40:55.720Z,18.77
2023-05-09T15:43:24.058Z,17.85
2023-05-09T15:45:52.408Z,21.15
2023-05-09T15:48:23.286Z,19.23
2023-05-09T15:50:51.628Z,20.75
2023-05-09T15:53:19.901Z,16.65
2023-05-09T15:55:48.264Z,15.82
2023-05-09T15:58:16.563Z,17.15
2023-05-09T16:00:53.149Z,20.80
2023-05-09T16:03:30.077Z,19.70
2023-05-09T16:06:04.580Z,22.83
2023-05-09T16:08:35.179Z,19.70
2023-05-09T16:11:04.564Z,18.67
2023-05-09T16:13:35.631Z,20.15
2023-05-09T16:16:04.477Z,24.38
2023-05-09T16:18:34.088Z,25.42
2023-05-09T16:21:02.355Z,23.35
2023-05-09T16:23:30.752Z,18.90
2023-05-09T16:25:59.142Z,21.08
2023-05-09T16:28:28.005Z,20.75
2023-05-09T16:30:56.315Z,22.80
2023-05-09T16:33:24.601Z,21.88
2023-05-09T16:35:54.388Z,23.08
2023-05-09T16:38:22.725Z,22.15
2023-05-09T16:40:51.279Z,19.85
2023-05-09T16:43:20.558Z,22.70
2023-05-09T16:45:49.052Z,23.23
2023-05-09T16:48:17.842Z,24.58
2023-05-09T16:50:47.750Z,22.48
2023-05-09T16:53:19.557Z,23.02
2023-05-09T16:55:48.010Z,24.80
2023-05-09T16:58:16.317Z,25.17
2023-05-09T17:00:47.237Z,22.25
2023-05-09T17:03:17.446Z,27.75
2023-05-09T17:05:50.137Z,23.63
2023-05-09T17:08:26.177Z,25.20
2023-05-09T17:11:00.516Z,33.63
2023-05-09T17:13:29.494Z,41.75
2023-05-09T17:16:00.183Z,44.88
2023-05-09T17:18:37.680Z,38.03
2023-05-09T17:21:06.524Z,33.72
2023-05-09T17:23:36.197Z,27.30
2023-05-09T17:26:04.736Z,26.83
2023-05-09T17:28:33.114Z,26.48
2023-05-09T17:31:03.249Z,25.88
2023-05-09T17:33:31.583Z,26.90
2023-05-09T17:36:00.683Z,24.23
2023-05-09T17:38:30.042Z,26.30
2023-05-09T17:40:59.715Z,26.17
2023-05-09T17:43:28.366Z,27.85
2023-05-09T17:45:56.740Z,23.02
2023-05-09T17:48:25.071Z,25.75
2023-05-09T17:50:53.380Z,26.35
2023-05-09T17:53:23.633Z,19.80
2023-05-09T17:55:52.239Z,19.40
2023-05-09T17:58:23.699Z,18.73
2023-05-09T18:00:54.974Z,19.98
2023-05-09T18:03:23.382Z,18.08
2023-05-09T18:05:51.909Z,17.80
2023-05-09T18:08:20.224Z,18.73
2023-05-09T18:10:48.703Z,17.48
2023-05-09T18:13:17.667Z,19.02
2023-05-09T18:15:47.453Z,19.10
2023-05-09T18:18:15.901Z,15.57
2023-05-09T18:20:46.162Z,15.77
2023-05-09T18:23:15.912Z,15.57
2023-05-09T18:25:44.288Z,14.68
2023-05-09T18:28:12.562Z,16.88
2023-05-09T18:30:41.136Z,16.63
2023-05-09T18:33:10.762Z,15.70
2023-05-09T18:35:39.063Z,16.73
2023-05-09T18:38:07.351Z,15.07
2023-05-09T18:40:37.172Z,11.50
2023-05-09T18:43:06.120Z,12.15
2023-05-09T18:45:34.527Z,14.82
2023-05-09T18:48:03.083Z,11.57
2023-05-09T18:50:32.846Z,14.15
2023-05-09T18:53:01.279Z,11.68
2023-05-09T18:55:29.612Z,11.05
2023-05-09T18:57:57.894Z,11.05
2023-05-09T19:00:26.179Z,11.40
2023-05-09T19:02:54.492Z,11.18
2023-05-09T19:05:22.844Z,13.23
2023-05-09T19:07:54.098Z,10.85
2023-05-09T19:10:22.720Z,11.02
2023-05-09T19:12:51.058Z,11.30
2023-05-09T19:15:19.687Z,15.50
2023-05-09T19:17:48.089Z,9.48
2023-05-09T19:20:16.645Z,9.60
2023-05-09T19:22:48.184Z,8.45
2023-05-09T19:25:17.792Z,8.82
2023-05-09T19:27:46.090Z,8.95
2023-05-09T19:30:15.419Z,9.93
2023-05-09T19:32:43.976Z,12.95
2023-05-09T19:35:12.529Z,9.40
2023-05-09T19:37:40.848Z,9.27
2023-05-09T19:40:09.587Z,9.65
2023-05-09T19:42:39.278Z,9.43
2023-05-09T19:45:08.069Z,8.95
2023-05-09T19:47:36.355Z,12.15
2023-05-09T19:50:04.884Z,12.05
2023-05-09T19:52:33.144Z,7.82
2023-05-09T19:55:01.543Z,7.68
2023-05-09T19:57:30.191Z,9.15
2023-05-09T20:00:00.240Z,9.55
2023-05-09T20:02:28.604Z,9.05
2023-05-09T20:04:56.918Z,9.27
2023-05-09T20:07:25.291Z,6.07
2023-05-09T20:09:54.116Z,7.97
2023-05-09T20:12:22.560Z,11.55
2023-05-09T20:14:50.886Z,7.32
2023-05-09T20:17:20.721Z,7.05
2023-05-09T20:19:49.160Z,7.07
2023-05-09T20:22:17.466Z,8.63
2023-05-09T20:24:46.201Z,8.07
2023-05-09T20:27:14.491Z,7.28
2023-05-09T20:29:42.852Z,9.55
2023-05-09T20:32:11.933Z,7.18
2023-05-09T20:34:41.564Z,9.57
2023-05-09T20:37:09.879Z,8.35
2023-05-09T20:39:38.295Z,9.68
2023-05-09T20:42:08.039Z,7.30
2023-05-09T20:44:37.486Z,6.53
2023-05-09T20:47:05.835Z,8.48
2023-05-09T20:49:34.134Z,9.95
2023-05-09T20:52:03.747Z,8.52
2023-05-09T20:54:31.987Z,10.25
2023-05-09T20:57:00.295Z,8.45
2023-05-09T20:59:28.576Z,9.73
2023-05-09T21:01:57.395Z,9.80
2023-05-09T21:04:27.958Z,7.82
2023-05-09T21:06:59.345Z,9.05
2023-05-09T21:09:29.477Z,8.60
2023-05-09T21:11:57.929Z,9.40
2023-05-09T21:14:26.208Z,9.10
2023-05-09T21:16:57.898Z,9.73
2023-05-09T21:19:26.288Z,10.65
2023-05-09T21:21:55.810Z,8.63
2023-05-09T21:24:24.075Z,8.07
2023-05-09T21:26:53.722Z,8.18
2023-05-09T21:29:22.285Z,8.23
2023-05-09T21:31:50.682Z,8.73
2023-05-09T21:34:20.115Z,8.05
2023-05-09T21:36:48.392Z,8.23
2023-05-09T21:39:16.625Z,9.48
2023-05-09T21:41:45.239Z,7.60
2023-05-09T21:44:15.026Z,7.97
2023-05-09T21:46:46.034Z,9.55
2023-05-09T21:49:16.572Z,8.50
2023-05-09T21:51:44.880Z,7.93
2023-05-09T21:54:13.140Z,9.18
2023-05-09T21:56:42.446Z,8.93
2023-05-09T21:59:10.879Z,7.78
2023-05-09T22:01:40.579Z,7.57
2023-05-09T22:04:09.164Z,7.20
2023-05-09T22:06:37.670Z,8.50
2023-05-09T22:09:06.926Z,7.88
2023-05-09T22:11:35.210Z,8.88
2023-05-09T22:14:03.583Z,6.88
2023-05-09T22:16:31.914Z,7.72
2023-05-09T22:19:01.545Z,8.07
2023-05-09T22:21:29.855Z,8.50
2023-05-09T22:23:58.619Z,6.88
2023-05-09T22:26:27.002Z,7.07
2023-05-09T22:28:56.519Z,7.72
2023-05-09T22:31:24.830Z,7.55
2023-05-09T22:33:53.138Z,7.43
2023-05-09T22:36:22.757Z,9.75
2023-05-09T22:38:51.311Z,7.15
2023-05-09T22:41:19.566Z,9.07
2023-05-09T22:43:47.917Z,6.82
2023-05-09T22:46:16.219Z,11.13
2023-05-09T22:48:44.467Z,8.48
2023-05-09T22:51:14.196Z,9.73
2023-05-09T22:53:43.824Z,8.82
2023-05-09T22:56:12.677Z,9.18
2023-05-09T22:58:41.006Z,9.80
2023-05-09T23:01:09.370Z,8.05
2023-05-09T23:03:38.036Z,10.60
2023-05-09T23:06:06.488Z,7.20
2023-05-09T23:08:35.040Z,10.05
2023-05-09T23:11:04.782Z,10.15
2023-05-09T23:13:33.188Z,7.60
2023-05-09T23:16:01.713Z,6.88
2023-05-09T23:18:30.149Z,7.20
2023-05-09T23:20:58.437Z,9.13
2023-05-09T23:23:26.686Z,9.18
2023-05-09T23:25:54.993Z,8.82
2023-05-09T23:28:25.272Z,8.80
2023-05-09T23:30:53.827Z,7.30
2023-05-09T23:33:22.164Z,6.72
2023-05-09T23:35:50.481Z,7.40
2023-05-09T23:38:18.782Z,8.00
2023-05-09T23:40:47.114Z,7.80
2023-05-09T23:43:15.511Z,6.22
2023-05-09T23:45:45.422Z,6.50
2023-05-09T23:48:13.796Z,5.82
2023-05-09T23:50:42.073Z,3.03
2023-05-09T23:53:10.433Z,4.38
2023-05-09T23:55:38.767Z,3.60
2023-05-09T23:58:07.062Z,4.20
